Time;durP1;ratioP1;P1;durP2;ratioP2;P2;SDS_P1;SDS_P2;PMS_P1;PMS_P2;Temp;Humidity;BMP_temperature;BMP_pressure;BME280_temperature;BME280_humidity;BME280_pressure;Samples;Min_cycle;Max_cycle;Signal;HPM_P1;HPM_P2
2023/08/27 00:00:08;;;;;;;;;1.25;1.25;;;;;20.42;43.77;100574.25;5079715;28;45202;-62
2023/08/27 00:02:33;;;;;;;;;0.00;0.00;;;;;20.39;43.79;100569.97;5079538;28;45207;-63
2023/08/27 00:04:59;;;;;;;;;2.00;1.50;;;;;20.36;43.73;100559.44;5079442;28;45390;-62
2023/08/27 00:07:24;;;;;;;;;1.25;1.25;;;;;20.35;43.66;100567.56;5079316;28;46610;-62
2023/08/27 00:09:50;;;;;;;;;2.00;1.00;;;;;20.33;43.87;100564.97;5079287;28;45278;-63
2023/08/27 00:12:15;;;;;;;;;0.50;0.50;;;;;20.29;43.51;100568.78;5079396;28;45520;-63
2023/08/27 00:14:41;;;;;;;;;0.50;0.50;;;;;20.27;43.83;100563.50;5079463;28;45290;-62
2023/08/27 00:17:06;;;;;;;;;1.00;1.00;;;;;20.26;43.67;100563.59;5079059;28;45391;-62
2023/08/27 00:19:31;;;;;;;;;3.25;1.25;;;;;20.26;44.00;100558.28;5079516;28;45405;-62
2023/08/27 00:21:57;;;;;;;;;1.50;1.50;;;;;20.21;43.99;100555.00;5079332;28;45317;-62
2023/08/27 00:24:23;;;;;;;;;2.75;2.00;;;;;20.21;43.34;100574.53;5078875;28;45279;-62
2023/08/27 00:26:48;;;;;;;;;0.50;0.50;;;;;20.13;44.26;100560.78;5078714;28;46290;-63
2023/08/27 00:29:18;;;;;;;;;0.25;0.25;;;;;20.16;43.71;100559.75;5077946;28;45265;-62
2023/08/27 00:31:43;;;;;;;;;2.25;2.00;;;;;20.10;43.91;100555.63;5079231;28;45405;-63
2023/08/27 00:34:08;;;;;;;;;2.00;2.00;;;;;20.08;44.18;100547.72;5079048;28;45324;-62
2023/08/27 00:36:34;;;;;;;;;0.00;0.00;;;;;20.11;44.26;100560.88;5081256;28;46166;-62
2023/08/27 00:38:59;;;;;;;;;2.00;2.00;;;;;20.09;44.02;100554.78;5080949;28;45775;-62
2023/08/27 00:41:24;;;;;;;;;2.50;1.75;;;;;20.07;44.30;100561.97;5082501;28;45302;-62
2023/08/27 00:43:50;;;;;;;;;2.25;2.25;;;;;20.05;43.83;100558.56;5082679;28;45322;-62
2023/08/27 00:46:15;;;;;;;;;1.75;1.75;;;;;20.05;44.06;100568.34;5082218;27;46299;-62
2023/08/27 00:48:41;;;;;;;;;1.50;1.50;;;;;20.06;43.84;100575.41;5081229;28;45267;-62
2023/08/27 00:51:07;;;;;;;;;0.50;0.25;;;;;20.02;43.89;100563.22;5082632;28;45263;-62
2023/08/27 00:53:34;;;;;;;;;0.25;0.25;;;;;20.02;44.27;100569.38;5082536;28;45310;-62
2023/08/27 00:55:59;;;;;;;;;3.75;2.00;;;;;20.00;44.26;100573.09;5081664;27;45312;-62
2023/08/27 00:58:25;;;;;;;;;1.75;1.75;;;;;19.94;44.58;100574.31;5082070;28;52272;-63
2023/08/27 01:00:51;;;;;;;;;1.50;1.50;;;;;19.92;44.39;100578.84;5082529;28;45266;-62
2023/08/27 01:03:16;;;;;;;;;3.50;3.00;;;;;19.90;44.10;100578.06;5082160;28;45236;-62
2023/08/27 01:05:43;;;;;;;;;2.00;2.00;;;;;19.84;44.61;100573.13;5081981;28;45183;-62
2023/08/27 01:08:09;;;;;;;;;5.50;2.50;;;;;19.80;44.92;100573.22;5082171;28;45504;-63
2023/08/27 01:11:02;;;;;;;;;3.00;3.00;;;;;19.74;44.82;100578.91;5081864;28;45327;-62
2023/08/27 01:13:37;;;;;;;;;4.25;1.50;;;;;19.69;45.05;100582.78;5063045;28;45473;-62
2023/08/27 01:16:05;;;;;;;;;2.00;2.00;;;;;19.64;45.16;100572.38;5081535;27;46379;-63
2023/08/27 01:18:31;;;;;;;;;1.75;1.00;;;;;19.60;44.84;100581.47;5082047;28;45354;-62
2023/08/27 01:20:57;;;;;;;;;1.00;1.00;;;;;19.56;45.30;100582.56;5080585;28;45397;-62
2023/08/27 01:23:24;;;;;;;;;2.00;1.00;;;;;19.51;45.65;100580.19;5081905;28;45479;-63
2023/08/27 01:25:52;;;;;;;;;2.25;2.25;;;;;19.48;45.13;100573.22;5081052;27;45228;-63
2023/08/27 01:28:36;;;;;;;;;2.75;1.50;;;;;19.44;45.57;100576.97;5081727;28;45223;-63
2023/08/27 01:31:08;;;;;;;;;2.25;1.00;;;;;19.39;45.59;100568.34;5082148;28;45206;-63
2023/08/27 01:33:35;;;;;;;;;1.00;1.00;;;;;19.39;45.81;100570.19;5080331;28;45509;-63
2023/08/27 01:36:00;;;;;;;;;3.00;0.25;;;;;19.35;45.52;100576.63;5081756;27;45325;-63
2023/08/27 01:38:26;;;;;;;;;1.00;1.00;;;;;19.29;45.88;100572.47;5081536;28;45526;-63
2023/08/27 01:40:52;;;;;;;;;2.00;1.00;;;;;19.25;45.93;100570.91;5081696;28;45314;-63
2023/08/27 01:43:17;;;;;;;;;1.00;1.00;;;;;19.20;46.13;100567.63;5081583;28;45428;-63
2023/08/27 01:45:42;;;;;;;;;0.75;0.75;;;;;19.14;46.26;100560.81;5081424;27;45572;-63
2023/08/27 01:48:08;;;;;;;;;0.25;0.25;;;;;19.12;46.01;100560.91;5081383;28;45198;-63
2023/08/27 01:50:33;;;;;;;;;1.50;1.00;;;;;19.09;46.01;100562.88;5080343;28;45280;-63
2023/08/27 01:52:58;;;;;;;;;0.00;0.00;;;;;19.06;46.06;100566.56;5081341;28;45418;-63
2023/08/27 01:55:24;;;;;;;;;0.00;0.00;;;;;19.02;45.84;100558.81;5079801;27;46078;-63
2023/08/27 01:57:49;;;;;;;;;1.00;1.00;;;;;19.00;46.02;100559.75;5081255;28;50044;-63
2023/08/27 02:00:16;;;;;;;;;0.75;0.75;;;;;18.98;45.75;100558.09;5081667;28;45582;-63
2023/08/27 02:02:42;;;;;;;;;0.00;0.00;;;;;18.96;46.36;100562.66;5081228;28;45279;-63
2023/08/27 02:05:08;;;;;;;;;1.00;1.00;;;;;18.93;46.20;100563.69;5079712;28;47114;-63
2023/08/27 02:07:37;;;;;;;;;0.00;0.00;;;;;18.90;46.40;100553.19;5081237;28;45413;-63
2023/08/27 02:10:04;;;;;;;;;0.50;0.00;;;;;18.89;46.24;100553.22;5081035;28;45216;-63
2023/08/27 02:12:29;;;;;;;;;0.75;0.75;;;;;18.84;46.22;100549.00;5081051;28;45358;-63
2023/08/27 02:14:55;;;;;;;;;1.00;1.00;;;;;18.86;46.77;100559.56;5080991;27;45387;-63
2023/08/27 02:17:20;;;;;;;;;1.00;0.00;;;;;18.82;46.52;100558.88;5080941;28;45434;-63
2023/08/27 02:19:45;;;;;;;;;0.00;0.00;;;;;18.80;46.56;100565.22;5081488;28;45343;-63
2023/08/27 02:22:11;;;;;;;;;0.50;0.50;;;;;18.79;46.82;100575.00;5079625;28;45395;-63
2023/08/27 02:24:36;;;;;;;;;0.00;0.00;;;;;18.76;46.55;100577.81;5080454;27;52028;-63
2023/08/27 02:27:01;;;;;;;;;1.00;1.00;;;;;18.74;46.66;100563.75;5080274;28;55254;-63
2023/08/27 02:29:27;;;;;;;;;0.00;0.00;;;;;18.66;46.87;100555.28;5081078;28;45471;-63
2023/08/27 02:31:52;;;;;;;;;0.75;0.50;;;;;18.70;46.65;100559.50;5079114;28;54358;-63
2023/08/27 02:34:18;;;;;;;;;0.00;0.00;;;;;18.67;47.03;100559.66;5081036;28;45313;-63
2023/08/27 02:36:44;;;;;;;;;0.00;0.00;;;;;18.66;46.32;100560.59;5080731;27;45231;-63
2023/08/27 02:39:09;;;;;;;;;0.00;0.00;;;;;18.59;46.69;100549.41;5080850;28;45269;-63
2023/08/27 02:41:34;;;;;;;;;2.00;1.00;;;;;18.59;47.09;100556.53;5080544;28;45255;-63
2023/08/27 02:43:59;;;;;;;;;1.00;0.00;;;;;18.58;46.92;100560.13;5080754;28;45347;-63
2023/08/27 02:46:25;;;;;;;;;0.75;0.75;;;;;18.56;46.94;100557.53;5080587;28;45240;-63
2023/08/27 02:48:50;;;;;;;;;1.00;1.00;;;;;18.57;46.80;100569.91;5080908;28;45260;-63
2023/08/27 02:51:15;;;;;;;;;2.00;2.00;;;;;18.55;46.95;100570.94;5080550;28;45248;-63
2023/08/27 02:53:41;;;;;;;;;3.25;1.00;;;;;18.54;46.77;100570.06;5080327;27;45350;-63
2023/08/27 02:56:08;;;;;;;;;3.00;2.00;;;;;18.52;47.08;100575.44;5079812;27;52345;-64
2023/08/27 02:58:33;;;;;;;;;2.25;1.75;;;;;18.49;46.88;100569.44;5079762;28;45304;-64
2023/08/27 03:00:58;;;;;;;;;0.00;0.00;;;;;18.46;47.43;100562.44;5080308;28;45611;-64
2023/08/27 03:03:23;;;;;;;;;0.75;0.75;;;;;18.45;47.52;100571.41;5080167;28;55429;-63
2023/08/27 03:05:49;;;;;;;;;0.25;0.25;;;;;18.41;47.68;100568.97;5080243;27;45654;-64
2023/08/27 03:08:14;;;;;;;;;1.50;1.50;;;;;18.34;47.38;100561.28;5080808;28;45389;-64
2023/08/27 03:10:39;;;;;;;;;2.75;1.00;;;;;18.30;47.39;100556.19;5079793;28;45417;-64
2023/08/27 03:13:05;;;;;;;;;1.50;1.50;;;;;18.31;47.57;100566.75;5080388;28;45313;-64
2023/08/27 03:15:30;;;;;;;;;1.50;1.00;;;;;18.34;47.47;100581.72;5080155;27;45431;-63
2023/08/27 03:17:55;;;;;;;;;1.00;1.00;;;;;18.31;47.44;100568.53;5079107;28;45422;-64
2023/08/27 03:20:21;;;;;;;;;0.75;0.75;;;;;18.30;47.56;100577.47;5078007;28;60348;-64
2023/08/27 03:22:46;;;;;;;;;3.00;2.00;;;;;18.27;47.51;100577.63;5080263;28;45499;-64
2023/08/27 03:25:11;;;;;;;;;1.75;1.00;;;;;18.27;47.99;100580.28;5077753;28;53882;-64
2023/08/27 03:27:36;;;;;;;;;2.00;0.75;;;;;18.20;47.91;100571.75;5080082;28;45418;-64
2023/08/27 03:30:03;;;;;;;;;1.75;1.00;;;;;18.20;48.03;100590.38;5079726;28;51895;-64
2023/08/27 03:32:29;;;;;;;;;1.75;1.75;;;;;18.16;48.06;100583.44;5080119;28;45329;-64
2023/08/27 03:34:55;;;;;;;;;2.00;1.00;;;;;18.12;48.08;100582.72;5079632;28;45180;-64
2023/08/27 03:37:20;;;;;;;;;0.00;0.00;;;;;18.06;48.42;100574.19;5080214;28;45257;-64
2023/08/27 03:39:45;;;;;;;;;2.00;2.00;;;;;18.03;48.20;100591.16;5078427;28;45466;-64
2023/08/27 03:42:11;;;;;;;;;1.00;1.00;;;;;18.01;48.38;100587.72;5078101;28;53047;-64
2023/08/27 03:44:36;;;;;;;;;1.00;1.00;;;;;17.98;48.36;100595.84;5078049;28;52447;-64
2023/08/27 03:47:03;;;;;;;;;2.00;1.00;;;;;17.93;48.10;100597.81;5080020;27;45319;-64
2023/08/27 03:49:29;;;;;;;;;1.00;1.00;;;;;17.91;48.22;100605.88;5079848;28;45411;-64
2023/08/27 03:51:54;;;;;;;;;1.50;1.50;;;;;17.83;48.53;100595.56;5079609;28;45365;-64
2023/08/27 03:54:19;;;;;;;;;1.00;1.00;;;;;17.79;48.55;100583.38;5079449;28;45337;-64
2023/08/27 03:56:45;;;;;;;;;1.00;1.00;;;;;17.78;48.46;100584.31;5079720;27;45389;-64
2023/08/27 03:59:11;;;;;;;;;1.25;1.00;;;;;17.79;48.73;100604.63;5078178;28;45311;-64
2023/08/27 04:01:36;;;;;;;;;3.00;1.00;;;;;17.75;48.89;100592.44;5079618;27;45279;-64
2023/08/27 04:04:03;;;;;;;;;1.25;1.25;;;;;17.73;48.95;100604.91;5079439;28;45320;-64
2023/08/27 04:06:28;;;;;;;;;1.00;1.00;;;;;17.70;48.95;100605.06;5079715;28;45396;-64
2023/08/27 04:08:54;;;;;;;;;1.75;1.00;;;;;17.67;48.66;100605.19;5079309;28;45398;-64
2023/08/27 04:11:19;;;;;;;;;3.00;2.00;;;;;17.64;48.93;100603.56;5083124;28;46251;-64
2023/08/27 04:13:45;;;;;;;;;1.25;1.00;;;;;17.63;48.99;100603.63;5082887;28;45823;-64
2023/08/27 04:16:11;;;;;;;;;0.75;0.75;;;;;17.58;48.89;100597.66;5083336;27;45726;-64
2023/08/27 04:18:36;;;;;;;;;0.25;0.25;;;;;17.59;48.87;100612.69;5082987;28;45359;-64
2023/08/27 04:21:03;;;;;;;;;1.50;1.50;;;;;17.55;48.97;100607.50;5081759;28;46134;-64
2023/08/27 04:23:28;;;;;;;;;1.25;1.00;;;;;17.53;49.18;100612.03;5082800;28;45236;-64
2023/08/27 04:25:54;;;;;;;;;1.00;1.00;;;;;17.52;49.05;100607.66;5082537;27;45288;-64
2023/08/27 04:28:21;;;;;;;;;2.00;1.00;;;;;17.49;49.16;100605.09;5082748;28;45520;-64
2023/08/27 04:30:50;;;;;;;;;1.25;1.25;;;;;17.49;49.18;100612.22;5083071;28;45320;-64
2023/08/27 04:33:16;;;;;;;;;1.00;1.00;;;;;17.45;49.12;100613.31;5082515;28;45181;-64
2023/08/27 04:35:42;;;;;;;;;2.50;1.00;;;;;17.42;49.32;100611.66;5082939;27;45294;-64
2023/08/27 04:38:08;;;;;;;;;1.00;1.00;;;;;17.42;49.14;100613.44;5082541;28;45402;-64
2023/08/27 04:40:34;;;;;;;;;2.00;1.00;;;;;17.39;49.54;100611.78;5082234;28;45931;-64
2023/08/27 04:43:00;;;;;;;;;2.25;1.25;;;;;17.35;49.53;100611.03;5082266;28;45365;-64
2023/08/27 04:45:25;;;;;;;;;1.50;1.00;;;;;17.36;49.42;100617.25;5082909;27;45311;-64
2023/08/27 04:47:51;;;;;;;;;1.00;0.00;;;;;17.33;49.56;100617.34;5081212;28;45459;-64
2023/08/27 04:50:17;;;;;;;;;2.00;1.50;;;;;17.27;49.71;100612.31;5082737;28;46015;-64
2023/08/27 04:52:42;;;;;;;;;0.75;0.75;;;;;17.29;49.58;100619.28;5082236;28;45252;-65
2023/08/27 04:55:08;;;;;;;;;0.00;0.00;;;;;17.26;49.56;100615.91;5082382;28;45319;-64
2023/08/27 04:57:34;;;;;;;;;2.25;2.00;;;;;17.27;49.77;100614.97;5082277;28;45465;-64
2023/08/27 05:00:03;;;;;;;;;0.75;0.75;;;;;17.26;49.68;100616.78;5082405;28;46036;-64
2023/08/27 05:02:29;;;;;;;;;1.00;1.00;;;;;17.27;49.82;100621.16;5082031;28;45301;-64
2023/08/27 05:04:54;;;;;;;;;2.00;2.00;;;;;17.23;49.37;100616.91;5081010;28;45469;-64
2023/08/27 05:07:20;;;;;;;;;2.50;1.00;;;;;17.24;49.87;100617.78;5080627;28;45575;-64
2023/08/27 05:09:46;;;;;;;;;1.75;1.00;;;;;17.25;49.50;100627.47;5081955;28;46611;-64
2023/08/27 05:12:11;;;;;;;;;1.50;1.50;;;;;17.26;49.61;100626.50;5082036;28;45331;-64
2023/08/27 05:14:37;;;;;;;;;1.25;1.25;;;;;17.26;49.43;100624.75;5082460;28;45377;-65
2023/08/27 05:17:02;;;;;;;;;1.50;1.50;;;;;17.24;49.53;100626.59;5081795;27;45539;-65
2023/08/27 05:19:28;;;;;;;;;2.00;1.25;;;;;17.22;49.85;100633.78;5082167;28;46038;-64
2023/08/27 05:21:53;;;;;;;;;1.00;0.00;;;;;17.22;49.76;100639.94;5081143;28;45286;-64
2023/08/27 05:24:18;;;;;;;;;0.75;0.50;;;;;17.21;49.75;100637.34;5081851;27;45334;-64
2023/08/27 05:26:44;;;;;;;;;2.00;2.00;;;;;17.21;50.01;100640.88;5080225;27;45475;-64
2023/08/27 05:29:09;;;;;;;;;3.25;2.25;;;;;17.19;50.11;100641.88;5081928;28;45207;-64
2023/08/27 05:31:35;;;;;;;;;1.00;1.00;;;;;17.15;50.65;100638.47;5081713;28;45292;-64
2023/08/27 05:34:00;;;;;;;;;1.00;0.00;;;;;17.13;49.87;100637.69;5080796;28;45453;-64
2023/08/27 05:36:25;;;;;;;;;2.25;1.00;;;;;17.11;50.08;100638.69;5081552;28;50028;-64
2023/08/27 05:38:50;;;;;;;;;1.25;0.00;;;;;17.05;50.41;100635.34;5081332;28;54823;-64
2023/08/27 05:41:16;;;;;;;;;1.00;0.00;;;;;17.06;50.43;100645.03;5081668;28;47139;-64
2023/08/27 05:43:44;;;;;;;;;1.00;1.00;;;;;17.03;50.38;100644.31;5080439;28;45185;-64
2023/08/27 05:46:10;;;;;;;;;4.50;3.00;;;;;17.04;50.41;100651.34;5081666;27;45462;-64
2023/08/27 05:48:37;;;;;;;;;3.25;2.00;;;;;17.03;50.17;100649.63;5081464;28;45348;-64
2023/08/27 05:51:03;;;;;;;;;2.00;1.75;;;;;16.99;50.47;100648.03;5081587;28;45450;-64
2023/08/27 05:53:28;;;;;;;;;2.00;1.00;;;;;16.99;50.57;100651.56;5081808;28;45432;-64
2023/08/27 05:55:53;;;;;;;;;2.00;1.00;;;;;16.96;50.38;100645.53;5079646;28;45359;-64
2023/08/27 05:58:19;;;;;;;;;2.00;1.00;;;;;16.97;50.54;100649.91;5079972;28;49251;-64
2023/08/27 06:00:44;;;;;;;;;1.00;1.00;;;;;16.94;50.29;100650.00;5081053;28;53091;-64
2023/08/27 06:03:10;;;;;;;;;3.50;1.00;;;;;16.97;50.68;100660.53;5081536;28;45468;-64
2023/08/27 06:05:35;;;;;;;;;1.00;0.50;;;;;16.96;50.79;100656.97;5081305;27;45359;-64
2023/08/27 06:08:02;;;;;;;;;2.00;2.00;;;;;16.89;50.67;100659.00;5081255;28;45246;-64
2023/08/27 06:10:28;;;;;;;;;7.00;4.75;;;;;16.96;50.63;100666.75;5080673;28;45282;-64
2023/08/27 06:12:54;;;;;;;;;3.00;3.00;;;;;16.93;50.81;100661.56;5080052;28;45437;-64
2023/08/27 06:15:19;;;;;;;;;3.75;3.75;;;;;16.93;51.04;100662.44;5079628;27;45707;-64
2023/08/27 06:17:45;;;;;;;;;2.50;1.25;;;;;16.92;50.75;100660.69;5081208;28;46011;-64
2023/08/27 06:20:11;;;;;;;;;3.00;3.00;;;;;16.93;50.74;100662.44;5080990;28;45325;-64
2023/08/27 06:22:36;;;;;;;;;3.00;3.00;;;;;16.89;50.80;100666.97;5080005;28;45333;-62
2023/08/27 06:25:02;;;;;;;;;2.00;2.00;;;;;16.89;51.24;100666.97;5080365;27;45355;-62
2023/08/27 06:27:27;;;;;;;;;0.00;0.00;;;;;16.88;51.67;100664.41;5080876;28;46072;-65
2023/08/27 06:29:53;;;;;;;;;1.75;0.50;;;;;16.87;51.35;100670.63;5080812;28;48895;-64
2023/08/27 06:32:18;;;;;;;;;3.00;2.50;;;;;16.82;51.48;100662.84;5080344;28;45452;-65
2023/08/27 06:34:43;;;;;;;;;3.25;2.25;;;;;16.88;51.40;100675.00;5080298;28;45426;-64
2023/08/27 06:37:09;;;;;;;;;1.50;1.50;;;;;16.89;51.03;100676.72;5080748;28;46274;-64
2023/08/27 06:39:34;;;;;;;;;1.00;1.00;;;;;16.90;51.46;100681.97;5080587;28;45354;-64
2023/08/27 06:41:59;;;;;;;;;2.25;2.25;;;;;16.93;51.29;100682.78;5080883;28;45439;-64
2023/08/27 06:44:25;;;;;;;;;0.00;0.00;;;;;16.93;51.54;100680.13;5080925;28;45358;-64
2023/08/27 06:46:50;;;;;;;;;3.75;2.75;;;;;16.94;51.21;100685.38;5080573;27;47185;-64
2023/08/27 06:49:15;;;;;;;;;1.00;1.00;;;;;16.93;51.33;100685.44;5080672;28;45358;-64
2023/08/27 06:51:41;;;;;;;;;4.00;2.00;;;;;16.92;51.54;100689.91;5080822;28;45232;-64
2023/08/27 06:54:06;;;;;;;;;2.25;1.50;;;;;16.94;51.62;100684.53;5080367;28;45320;-64
2023/08/27 06:56:32;;;;;;;;;5.00;2.75;;;;;16.95;51.62;100684.44;5080299;27;45360;-64
2023/08/27 06:58:57;;;;;;;;;1.75;0.50;;;;;16.96;51.54;100675.56;5080331;28;54848;-64
2023/08/27 07:01:23;;;;;;;;;2.00;1.00;;;;;16.97;51.53;100679.09;5080682;28;45162;-64
2023/08/27 07:03:49;;;;;;;;;1.00;1.00;;;;;16.92;51.88;100666.00;5080311;28;45371;-64
2023/08/27 07:06:14;;;;;;;;;3.00;2.00;;;;;16.96;51.92;100674.72;5080174;27;45282;-64
2023/08/27 07:08:40;;;;;;;;;1.25;1.00;;;;;17.01;51.69;100688.66;5078822;28;45308;-64
2023/08/27 07:11:05;;;;;;;;;2.75;2.00;;;;;17.01;51.57;100686.00;5080074;28;45394;-64
2023/08/27 07:13:30;;;;;;;;;2.50;1.00;;;;;17.05;51.75;100692.91;5080371;28;45339;-64
2023/08/27 07:15:57;;;;;;;;;1.75;1.00;;;;;17.08;52.02;100703.41;5079912;28;45364;-64
2023/08/27 07:18:22;;;;;;;;;4.00;1.00;;;;;17.10;52.02;100700.69;5080221;28;45377;-64
2023/08/27 07:20:48;;;;;;;;;1.00;1.00;;;;;17.11;51.87;100700.59;5080010;28;45411;-64
2023/08/27 07:23:13;;;;;;;;;2.75;1.00;;;;;17.14;51.46;100691.66;5080094;28;45529;-64
2023/08/27 07:25:39;;;;;;;;;5.00;2.00;;;;;17.14;51.95;100689.84;5078974;28;53954;-64
2023/08/27 07:28:04;;;;;;;;;2.50;2.50;;;;;17.21;51.77;100698.44;5080109;28;45334;-64
2023/08/27 07:30:31;;;;;;;;;1.75;1.00;;;;;17.27;51.63;100702.59;5080022;28;45363;-64
2023/08/27 07:32:56;;;;;;;;;1.50;1.00;;;;;17.29;51.57;100701.59;5080068;28;45320;-64
2023/08/27 07:35:22;;;;;;;;;1.00;1.00;;;;;17.36;51.93;100703.06;5079419;27;46387;-64
2023/08/27 07:37:49;;;;;;;;;1.75;1.00;;;;;17.41;51.59;100709.97;5078479;28;45922;-64
2023/08/27 07:40:14;;;;;;;;;3.00;1.25;;;;;17.44;51.90;100705.41;5079669;28;45374;-64
2023/08/27 07:42:40;;;;;;;;;1.00;1.00;;;;;17.49;52.03;100715.84;5079741;28;45318;-64
2023/08/27 07:45:06;;;;;;;;;1.25;0.00;;;;;17.51;51.82;100711.31;5078949;28;46528;-64
2023/08/27 07:47:31;;;;;;;;;0.25;0.25;;;;;17.55;52.21;100718.22;5079788;28;45440;-64
2023/08/27 07:49:56;;;;;;;;;2.25;1.00;;;;;17.57;51.80;100711.03;5078466;28;45373;-64
2023/08/27 07:52:21;;;;;;;;;0.00;0.00;;;;;17.62;51.92;100713.50;5079941;28;45247;-64
2023/08/27 07:54:47;;;;;;;;;2.00;1.00;;;;;17.65;51.81;100708.06;5079361;28;45358;-64
2023/08/27 07:57:14;;;;;;;;;2.00;2.00;;;;;17.68;51.78;100716.75;5078220;28;45241;-64
2023/08/27 07:59:42;;;;;;;;;0.75;0.75;;;;;17.72;51.93;100714.81;5079791;28;45240;-64
2023/08/27 08:02:08;;;;;;;;;4.75;4.75;;;;;17.74;51.66;100707.63;5079514;28;45364;-64
2023/08/27 08:04:33;;;;;;;;;3.75;2.50;;;;;17.78;51.76;100703.91;5077982;28;47513;-64
2023/08/27 08:06:58;;;;;;;;;0.00;0.00;;;;;17.82;51.95;100713.47;5079567;28;45416;-64
2023/08/27 08:09:24;;;;;;;;;1.00;1.00;;;;;17.86;51.87;100709.75;5079384;28;45306;-64
2023/08/27 08:11:49;;;;;;;;;2.00;2.00;;;;;17.89;51.68;100715.88;5079386;28;45352;-64
2023/08/27 08:14:14;;;;;;;;;1.00;1.00;;;;;17.93;51.63;100709.47;5079354;28;45392;-64
2023/08/27 08:16:39;;;;;;;;;2.50;1.00;;;;;17.97;51.69;100711.09;5079456;28;45272;-64
2023/08/27 08:19:05;;;;;;;;;5.00;2.00;;;;;18.01;51.49;100702.03;5079640;28;45318;-64
2023/08/27 08:21:30;;;;;;;;;2.00;2.00;;;;;18.05;51.84;100690.34;5079354;28;45511;-64
2023/08/27 08:23:55;;;;;;;;;2.25;1.00;;;;;18.09;51.40;100683.09;5078408;28;55275;-64
2023/08/27 08:26:21;;;;;;;;;1.00;1.00;;;;;18.12;51.26;100675.81;5078969;28;45481;-64
2023/08/27 08:28:46;;;;;;;;;2.50;1.00;;;;;18.20;51.64;100680.78;5079013;28;48689;-64
2023/08/27 08:31:11;;;;;;;;;1.50;1.00;;;;;18.25;50.96;100683.19;5079170;28;48022;-64
2023/08/27 08:33:36;;;;;;;;;1.00;1.00;;;;;18.33;51.25;100684.56;5079061;28;46094;-64
2023/08/27 08:36:02;;;;;;;;;3.00;1.00;;;;;18.38;51.08;100683.47;5079162;27;45417;-64
2023/08/27 08:38:27;;;;;;;;;2.50;0.00;;;;;18.45;51.09;100682.25;5079028;28;45375;-64
2023/08/27 08:40:58;;;;;;;;;1.00;1.00;;;;;18.52;51.22;100683.69;5079173;28;45392;-64
2023/08/27 08:43:37;;;;;;;;;1.00;1.00;;;;;18.59;51.17;100679.81;5078851;28;46608;-64
2023/08/27 08:46:04;;;;;;;;;1.50;1.00;;;;;18.65;51.09;100684.84;5077855;28;45390;-64
2023/08/27 08:48:41;;;;;;;;;1.25;1.00;;;;;18.71;51.05;100682.81;5079169;28;45335;-64
2023/08/27 08:51:08;;;;;;;;;2.75;1.00;;;;;18.74;51.23;100686.19;5079014;28;45263;-64
2023/08/27 08:53:39;;;;;;;;;1.00;1.00;;;;;18.81;50.98;100692.06;5078735;28;45319;-64
2023/08/27 08:56:07;;;;;;;;;1.00;1.00;;;;;18.87;50.83;100697.06;5077514;28;45477;-64
2023/08/27 08:58:37;;;;;;;;;4.00;1.00;;;;;18.93;50.64;100694.13;5082487;28;45218;-64
2023/08/27 09:01:04;;;;;;;;;1.00;1.00;;;;;18.98;50.62;100686.78;5082238;28;45323;-64
2023/08/27 09:03:31;;;;;;;;;1.00;1.00;;;;;19.05;51.03;100692.66;5082169;28;45400;-64
2023/08/27 09:05:57;;;;;;;;;1.75;1.75;;;;;19.07;50.15;100682.78;5082245;27;46180;-64
2023/08/27 09:08:23;;;;;;;;;0.75;0.75;;;;;19.18;50.50;100687.56;5082178;28;45346;-64
2023/08/27 09:10:49;;;;;;;;;1.75;1.00;;;;;19.25;50.48;100680.13;5081879;28;45390;-64
2023/08/27 09:13:21;;;;;;;;;1.00;1.00;;;;;19.30;50.14;100692.25;5082277;28;45370;-64
2023/08/27 09:15:51;;;;;;;;;0.25;0.00;;;;;19.38;49.99;100694.53;5082029;27;45290;-64
2023/08/27 09:18:17;;;;;;;;;1.00;1.00;;;;;19.45;49.77;100695.09;5082268;28;45363;-64
2023/08/27 09:20:43;;;;;;;;;1.00;1.00;;;;;19.50;49.63;100698.38;5081957;28;45478;-64
2023/08/27 09:23:13;;;;;;;;;2.00;1.50;;;;;19.56;49.82;100689.16;5081945;28;45673;-64
2023/08/27 09:25:39;;;;;;;;;2.75;1.00;;;;;19.62;49.30;100691.50;5080072;27;45454;-64
2023/08/27 09:28:06;;;;;;;;;0.00;0.00;;;;;19.73;49.61;100698.97;5082253;28;45443;-64
2023/08/27 09:30:31;;;;;;;;;0.25;0.25;;;;;19.81;49.15;100705.59;5081721;28;45514;-63
2023/08/27 09:32:57;;;;;;;;;0.00;0.00;;;;;19.89;49.08;100709.69;5081503;28;45326;-64
2023/08/27 09:35:22;;;;;;;;;1.00;1.00;;;;;19.93;49.15;100709.44;5080246;27;45276;-64
2023/08/27 09:37:47;;;;;;;;;1.00;1.00;;;;;20.00;48.87;100709.97;5082121;28;45453;-64
2023/08/27 09:40:18;;;;;;;;;1.50;1.00;;;;;20.07;48.81;100710.50;5081380;28;45495;-64
2023/08/27 09:42:44;;;;;;;;;0.50;0.50;;;;;20.14;48.73;100711.91;5081718;28;45326;-64
2023/08/27 09:45:10;;;;;;;;;0.75;0.75;;;;;20.22;48.84;100714.13;5080095;27;45359;-64
2023/08/27 09:47:39;;;;;;;;;0.00;0.00;;;;;20.30;48.44;100712.75;5081298;28;45333;-64
2023/08/27 09:50:06;;;;;;;;;1.00;1.00;;;;;20.40;48.21;100721.13;5081651;28;45303;-64
2023/08/27 09:52:32;;;;;;;;;1.50;1.50;;;;;20.46;48.31;100710.09;5081217;28;45371;-64
2023/08/27 09:54:57;;;;;;;;;0.00;0.00;;;;;20.56;48.13;100715.75;5079593;27;45285;-64
2023/08/27 09:57:22;;;;;;;;;1.25;0.25;;;;;20.68;48.51;100718.69;5081535;28;45367;-64
2023/08/27 09:59:48;;;;;;;;;1.00;1.00;;;;;20.75;48.49;100718.31;5081609;28;45214;-64
2023/08/27 10:02:15;;;;;;;;;0.25;0.00;;;;;20.86;48.10;100720.34;5081332;28;45425;-63
2023/08/27 10:04:54;;;;;;;;;1.00;1.00;;;;;20.96;48.00;100723.34;5081180;27;45402;-64
2023/08/27 10:07:20;;;;;;;;;1.50;0.25;;;;;21.07;48.00;100720.06;5081102;28;45356;-64
2023/08/27 10:09:50;;;;;;;;;0.75;0.75;;;;;21.18;47.66;100720.28;5081218;28;45287;-64
2023/08/27 10:12:17;;;;;;;;;0.50;0.25;;;;;21.28;47.25;100715.22;5080926;28;46252;-64
2023/08/27 10:14:44;;;;;;;;;2.00;2.00;;;;;21.38;47.82;100724.44;5081211;28;45345;-64
2023/08/27 10:17:10;;;;;;;;;1.50;1.50;;;;;21.51;47.68;100721.88;5081104;27;45521;-64
2023/08/27 10:19:36;;;;;;;;;0.00;0.00;;;;;21.63;47.44;100722.97;5079824;28;45456;-64
2023/08/27 10:22:06;;;;;;;;;1.25;1.25;;;;;21.72;47.41;100729.56;5080910;28;45251;-64
2023/08/27 10:24:32;;;;;;;;;1.00;0.00;;;;;21.80;47.13;100727.28;5080440;28;45479;-64
2023/08/27 10:27:01;;;;;;;;;2.00;0.25;;;;;21.86;46.81;100737.63;5080684;28;45350;-63
2023/08/27 10:29:28;;;;;;;;;0.00;0.00;;;;;21.91;46.42;100726.63;5081148;28;45309;-63
2023/08/27 10:31:54;;;;;;;;;0.00;0.00;;;;;22.02;46.80;100740.19;5080722;28;46321;-64
2023/08/27 10:34:23;;;;;;;;;0.00;0.00;;;;;22.14;46.45;100733.22;5081016;28;45249;-64
2023/08/27 10:36:51;;;;;;;;;1.00;1.00;;;;;22.31;46.03;100745.50;5081000;28;45339;-64
2023/08/27 10:39:20;;;;;;;;;1.00;1.00;;;;;22.43;45.77;100741.25;5080764;28;45313;-64
2023/08/27 10:41:46;;;;;;;;;1.75;1.75;;;;;22.59;45.92;100742.91;5080327;28;45401;-64
2023/08/27 10:44:18;;;;;;;;;2.75;2.75;;;;;22.73;45.74;100749.09;5080614;28;45279;-64
2023/08/27 10:47:11;;;;;;;;;2.00;1.00;;;;;22.91;45.51;100748.84;5081047;27;45427;-64
2023/08/27 10:49:37;;;;;;;;;1.75;1.00;;;;;23.03;45.60;100742.69;5080415;27;45285;-64
2023/08/27 10:52:19;;;;;;;;;1.50;0.75;;;;;23.18;45.39;100745.31;5080729;28;45169;-64
2023/08/27 10:54:51;;;;;;;;;1.00;0.00;;;;;23.32;44.83;100728.28;5080473;28;45322;-64
2023/08/27 10:57:16;;;;;;;;;1.00;1.00;;;;;23.46;45.23;100735.41;5079315;28;45232;-64
2023/08/27 10:59:42;;;;;;;;;0.50;0.50;;;;;23.54;44.60;100736.59;5080483;28;45314;-64
2023/08/27 11:02:07;;;;;;;;;0.75;0.75;;;;;23.62;44.67;100738.75;5080391;28;46479;-64
2023/08/27 11:04:38;;;;;;;;;1.25;1.00;;;;;23.68;44.38;100735.66;5080400;28;45330;-64
2023/08/27 11:07:17;;;;;;;;;2.00;1.00;;;;;23.75;44.10;100735.19;5080502;27;45342;-64
2023/08/27 11:09:56;;;;;;;;;0.75;0.75;;;;;23.72;43.57;100732.75;5080081;28;45464;-64
2023/08/27 11:12:26;;;;;;;;;0.00;0.00;;;;;23.70;43.53;100740.91;5080088;28;45259;-62
2023/08/27 11:14:53;;;;;;;;;0.25;0.00;;;;;23.69;43.10;100729.31;5078755;28;45478;-62
2023/08/27 11:17:26;;;;;;;;;0.00;0.00;;;;;23.72;43.09;100722.84;5078910;28;45461;-62
2023/08/27 11:19:52;;;;;;;;;0.00;0.00;;;;;23.81;42.72;100721.34;5079472;28;45346;-62